Time;durP1;ratioP1;P1;durP2;ratioP2;P2;SDS_P1;SDS_P2;PMS_P1;PMS_P2;Temp;Humidity;BMP_temperature;BMP_pressure;BME280_temperature;BME280_humidity;BME280_pressure;Samples;Min_cycle;Max_cycle;Signal;HPM_P1;HPM_P2
2022/08/20 00:01:00;;;;;;;25.10;21.67;;;16.60;99.90;;;;;;5049156;28;20240;-79
2022/08/20 00:03:30;;;;;;;24.93;21.83;;;16.60;99.90;;;;;;5052566;28;20337;-80
2022/08/20 00:05:59;;;;;;;24.80;22.10;;;16.60;99.90;;;;;;5053623;28;20232;-80
2022/08/20 00:08:26;;;;;;;23.77;21.17;;;16.60;99.90;;;;;;5050564;28;20231;-80
2022/08/20 00:10:55;;;;;;;24.67;20.60;;;16.70;99.90;;;;;;5050398;28;20236;-79
2022/08/20 00:13:26;;;;;;;22.10;18.83;;;16.70;99.90;;;;;;5050773;28;20226;-79
2022/08/20 00:15:53;;;;;;;22.17;19.87;;;16.80;99.90;;;;;;5049031;28;20230;-80
2022/08/20 00:18:21;;;;;;;21.30;19.00;;;16.80;99.90;;;;;;5050010;28;20230;-79
2022/08/20 00:20:51;;;;;;;22.57;20.10;;;16.80;99.90;;;;;;5055514;28;20216;-80
2022/08/20 00:23:17;;;;;;;22.47;18.87;;;16.90;99.90;;;;;;5051212;28;20259;-80
2022/08/20 00:25:45;;;;;;;20.93;18.73;;;16.90;99.90;;;;;;5056467;28;20227;-80
2022/08/20 00:28:14;;;;;;;21.57;18.87;;;17.00;99.90;;;;;;5052171;28;20229;-80
2022/08/20 00:30:42;;;;;;;22.53;19.53;;;17.00;99.90;;;;;;5044801;28;20237;-79
2022/08/20 00:33:13;;;;;;;21.00;18.80;;;17.00;99.90;;;;;;5050627;28;20230;-79
2022/08/20 00:35:43;;;;;;;20.83;17.87;;;17.00;99.90;;;;;;5053260;28;20227;-81
2022/08/20 00:38:09;;;;;;;22.27;19.00;;;17.10;99.90;;;;;;5045974;28;20232;-81
2022/08/20 00:40:38;;;;;;;20.83;18.20;;;17.10;99.90;;;;;;5056697;28;20227;-80
2022/08/20 00:43:24;;;;;;;20.67;17.60;;;17.10;99.90;;;;;;5045791;28;20256;-79
2022/08/20 00:45:55;;;;;;;21.73;17.10;;;17.20;99.90;;;;;;5046599;28;20240;-80
2022/08/20 00:48:22;;;;;;;18.83;16.67;;;17.20;99.90;;;;;;5048155;28;22128;-80
2022/08/20 00:50:49;;;;;;;20.90;17.17;;;17.30;99.90;;;;;;5054728;28;20218;-80
2022/08/20 00:53:17;;;;;;;20.03;16.97;;;17.30;99.90;;;;;;5059301;28;20880;-80
2022/08/20 00:55:43;;;;;;;18.17;15.57;;;17.30;99.90;;;;;;5049987;28;20237;-80
2022/08/20 00:58:13;;;;;;;17.23;15.43;;;17.30;99.90;;;;;;5056625;28;20728;-81
2022/08/20 01:00:44;;;;;;;17.07;15.27;;;17.30;99.90;;;;;;5046835;28;20791;-80
2022/08/20 01:03:19;;;;;;;17.40;15.00;;;17.40;99.90;;;;;;5051732;28;21085;-80
2022/08/20 01:05:50;;;;;;;16.87;14.77;;;17.40;99.90;;;;;;5066535;28;20226;-80
2022/08/20 01:08:20;;;;;;;15.07;13.23;;;17.40;99.90;;;;;;5056304;28;20298;-80
2022/08/20 01:10:48;;;;;;;15.47;13.77;;;17.40;99.90;;;;;;5051557;28;20245;-78
2022/08/20 01:13:24;;;;;;;15.40;13.67;;;17.50;99.90;;;;;;5052324;28;20598;-79
2022/08/20 01:15:54;;;;;;;14.93;13.17;;;17.40;99.90;;;;;;5051353;28;20245;-79
2022/08/20 01:18:26;;;;;;;14.40;12.10;;;17.40;99.90;;;;;;5046704;28;20295;-80
2022/08/20 01:20:57;;;;;;;15.50;12.57;;;17.50;99.90;;;;;;5052671;28;20260;-79
2022/08/20 01:23:31;;;;;;;13.17;11.63;;;17.50;99.90;;;;;;5051369;28;20221;-79
2022/08/20 01:26:04;;;;;;;13.70;11.50;;;17.50;99.90;;;;;;5045956;28;20698;-79
2022/08/20 01:28:40;;;;;;;13.23;11.83;;;17.50;99.90;;;;;;5052149;28;20246;-80
2022/08/20 01:31:10;;;;;;;12.80;11.47;;;17.60;99.90;;;;;;5050190;28;20230;-78
2022/08/20 01:33:38;;;;;;;12.63;11.03;;;17.60;99.90;;;;;;5051528;28;20218;-81
2022/08/20 01:36:05;;;;;;;12.43;10.53;;;17.60;99.90;;;;;;5046474;28;20229;-80
2022/08/20 01:38:33;;;;;;;11.97;10.17;;;17.60;99.90;;;;;;5051186;28;20222;-79
2022/08/20 01:41:44;;;;;;;11.47;10.27;;;17.60;99.90;;;;;;5045572;28;20221;-80
2022/08/20 01:44:11;;;;;;;12.03;10.47;;;17.60;99.90;;;;;;5023835;28;20640;-80
2022/08/20 01:46:41;;;;;;;12.70;11.40;;;17.60;99.90;;;;;;5051024;28;20227;-80
2022/08/20 01:49:10;;;;;;;12.83;11.27;;;17.60;99.90;;;;;;5048334;28;20236;-80
2022/08/20 01:51:37;;;;;;;12.23;11.03;;;17.60;99.90;;;;;;5050420;28;20427;-80
2022/08/20 01:54:05;;;;;;;12.30;11.00;;;17.60;99.90;;;;;;5053541;28;21039;-80
2022/08/20 01:56:35;;;;;;;13.27;11.47;;;17.60;99.90;;;;;;5044287;28;20237;-80
2022/08/20 01:59:05;;;;;;;12.20;10.70;;;17.60;99.90;;;;;;5061492;28;20246;-79
2022/08/20 02:01:35;;;;;;;12.67;11.37;;;17.60;99.90;;;;;;5053685;28;20227;-79
2022/08/20 02:04:05;;;;;;;14.47;12.00;;;17.60;99.90;;;;;;5054600;28;20225;-81
2022/08/20 02:06:35;;;;;;;14.53;12.83;;;17.60;99.90;;;;;;5050768;28;20239;-81
2022/08/20 02:09:05;;;;;;;12.73;11.43;;;17.60;99.90;;;;;;5052898;28;20609;-81
2022/08/20 02:11:37;;;;;;;11.63;10.43;;;17.60;99.90;;;;;;5052583;28;20225;-79
2022/08/20 02:14:07;;;;;;;11.37;10.20;;;17.50;99.90;;;;;;5052546;28;20875;-79
2022/08/20 02:16:37;;;;;;;13.27;11.63;;;17.60;99.90;;;;;;5047643;28;20219;-80
2022/08/20 02:19:08;;;;;;;13.57;10.43;;;17.60;99.90;;;;;;5043336;28;20309;-81
2022/08/20 02:21:37;;;;;;;13.17;11.57;;;17.60;99.90;;;;;;5055220;28;20225;-79
2022/08/20 02:24:05;;;;;;;12.10;10.80;;;17.60;99.90;;;;;;5041867;28;20222;-80
2022/08/20 02:26:31;;;;;;;10.63;9.53;;;17.60;99.90;;;;;;5048526;28;20302;-79
2022/08/20 02:28:59;;;;;;;11.70;10.00;;;17.60;99.90;;;;;;5048180;28;20232;-79
2022/08/20 02:31:26;;;;;;;10.60;9.40;;;17.60;99.90;;;;;;5049113;28;20226;-79
2022/08/20 02:33:53;;;;;;;11.03;9.73;;;17.60;99.90;;;;;;5055630;28;20221;-80
2022/08/20 02:36:20;;;;;;;11.63;10.03;;;17.60;99.90;;;;;;5051446;28;20226;-79
2022/08/20 02:38:47;;;;;;;10.27;9.27;;;17.60;99.90;;;;;;5053325;28;20226;-79
2022/08/20 02:41:14;;;;;;;10.87;9.77;;;17.50;99.90;;;;;;5052387;28;20224;-80
2022/08/20 02:43:42;;;;;;;13.00;10.70;;;17.50;99.90;;;;;;5055431;28;20217;-78
2022/08/20 02:46:10;;;;;;;10.60;9.50;;;17.50;99.90;;;;;;5050380;28;20321;-80
2022/08/20 02:48:39;;;;;;;10.27;9.27;;;17.50;99.90;;;;;;5053668;28;20908;-79
2022/08/20 02:51:06;;;;;;;10.43;9.40;;;17.50;99.90;;;;;;5048237;28;20244;-79
2022/08/20 02:53:36;;;;;;;9.90;8.90;;;17.50;99.90;;;;;;5049107;28;20222;-79
2022/08/20 02:56:04;;;;;;;10.10;9.03;;;17.50;99.90;;;;;;5054855;28;20237;-80
2022/08/20 02:58:31;;;;;;;11.27;10.07;;;17.50;99.90;;;;;;5054864;28;20230;-80
2022/08/20 03:00:58;;;;;;;10.17;9.27;;;17.50;99.90;;;;;;5049500;28;20229;-81
2022/08/20 03:03:26;;;;;;;10.23;9.17;;;17.40;99.90;;;;;;5051908;28;20246;-81
2022/08/20 03:05:54;;;;;;;10.30;9.30;;;17.50;99.90;;;;;;5054384;28;20229;-81
2022/08/20 03:08:22;;;;;;;9.90;8.90;;;17.50;99.90;;;;;;5055149;28;20237;-79
2022/08/20 03:10:51;;;;;;;9.67;8.67;;;17.40;99.90;;;;;;5056124;28;20219;-79
2022/08/20 03:13:19;;;;;;;11.23;8.83;;;17.40;99.90;;;;;;5052784;28;20897;-80
2022/08/20 03:15:48;;;;;;;9.73;8.83;;;17.40;99.90;;;;;;5056771;28;20231;-79
2022/08/20 03:18:16;;;;;;;10.50;8.87;;;17.40;99.90;;;;;;5063011;28;20230;-81
2022/08/20 03:20:45;;;;;;;9.37;8.47;;;17.30;99.90;;;;;;5056392;28;20221;-80
2022/08/20 03:23:11;;;;;;;9.37;8.47;;;17.30;99.90;;;;;;5047908;28;20485;-80
2022/08/20 03:25:38;;;;;;;9.30;8.40;;;17.30;99.90;;;;;;5051964;28;20677;-79
2022/08/20 03:28:05;;;;;;;9.83;8.50;;;17.30;99.90;;;;;;5052635;28;20246;-80
2022/08/20 03:30:32;;;;;;;8.23;7.43;;;17.30;99.90;;;;;;5053876;28;20878;-79
2022/08/20 03:32:59;;;;;;;9.80;8.80;;;17.20;99.90;;;;;;5054986;28;20239;-80
2022/08/20 03:35:28;;;;;;;11.30;10.00;;;17.30;99.90;;;;;;5060441;28;20281;-81
2022/08/20 03:37:57;;;;;;;10.50;9.40;;;17.30;99.90;;;;;;5061486;28;20227;-78
2022/08/20 03:40:26;;;;;;;11.57;10.07;;;17.20;99.90;;;;;;5052613;28;21427;-81
2022/08/20 03:42:54;;;;;;;13.43;10.00;;;17.30;99.90;;;;;;5054879;28;20243;-79
2022/08/20 03:45:22;;;;;;;11.63;10.43;;;17.20;99.90;;;;;;5050210;28;20241;-79
2022/08/20 03:47:50;;;;;;;10.83;9.33;;;17.20;99.90;;;;;;5058085;28;20230;-79
2022/08/20 03:50:20;;;;;;;11.83;10.53;;;17.20;99.90;;;;;;5049701;28;20238;-81
2022/08/20 03:52:46;;;;;;;11.87;10.53;;;17.20;99.90;;;;;;5052820;28;20233;-79
2022/08/20 03:55:16;;;;;;;12.17;10.87;;;17.30;99.90;;;;;;5049029;28;20310;-79
2022/08/20 03:57:46;;;;;;;13.07;11.10;;;17.20;99.90;;;;;;5051135;28;20220;-79
2022/08/20 04:00:15;;;;;;;13.23;11.80;;;17.30;99.90;;;;;;5048444;28;20227;-79
2022/08/20 04:02:42;;;;;;;15.17;12.77;;;17.30;99.90;;;;;;5028162;28;20234;-78
2022/08/20 04:05:09;;;;;;;14.70;11.67;;;17.30;99.90;;;;;;5048844;28;20649;-78
2022/08/20 04:07:36;;;;;;;12.40;10.33;;;17.30;99.90;;;;;;5056776;28;20229;-81
2022/08/20 04:10:07;;;;;;;14.53;12.60;;;17.30;99.90;;;;;;5048436;28;20274;-78
2022/08/20 04:12:36;;;;;;;14.90;12.37;;;17.30;99.90;;;;;;5048494;28;20300;-79
2022/08/20 04:15:04;;;;;;;15.73;12.93;;;17.40;99.90;;;;;;5051428;28;20274;-79
2022/08/20 04:17:32;;;;;;;13.70;11.93;;;17.40;99.90;;;;;;5052809;28;20596;-79
2022/08/20 04:19:58;;;;;;;16.93;12.40;;;17.40;99.90;;;;;;5051189;28;20248;-78
2022/08/20 04:22:25;;;;;;;13.53;11.67;;;17.50;99.90;;;;;;5053965;28;20229;-79
2022/08/20 04:24:52;;;;;;;16.33;12.17;;;17.50;99.90;;;;;;5049320;28;20228;-79
2022/08/20 04:27:20;;;;;;;15.80;13.10;;;17.50;99.90;;;;;;5052307;28;20237;-79
2022/08/20 04:29:49;;;;;;;14.10;12.07;;;17.50;99.90;;;;;;5050249;28;20220;-80
2022/08/20 04:32:16;;;;;;;15.50;11.93;;;17.60;99.90;;;;;;5053531;28;20229;-79
2022/08/20 04:34:43;;;;;;;14.70;11.60;;;17.60;99.90;;;;;;5050174;28;20240;-79
2022/08/20 04:37:10;;;;;;;16.33;13.90;;;17.60;99.90;;;;;;5054383;28;20231;-80
2022/08/20 04:39:37;;;;;;;17.60;13.17;;;17.70;99.90;;;;;;5053412;28;20258;-79
2022/08/20 04:42:06;;;;;;;15.77;12.33;;;17.70;99.90;;;;;;5052653;28;20238;-80
2022/08/20 04:44:33;;;;;;;14.33;12.70;;;17.70;99.90;;;;;;5051850;28;20229;-77
2022/08/20 04:47:01;;;;;;;15.07;12.03;;;17.80;99.90;;;;;;5054290;28;20329;-78
2022/08/20 04:49:27;;;;;;;16.57;12.83;;;17.80;99.90;;;;;;5047980;28;20230;-78
2022/08/20 04:51:54;;;;;;;16.27;12.83;;;17.80;99.90;;;;;;5050663;28;20550;-78
2022/08/20 04:54:21;;;;;;;14.50;12.57;;;17.90;99.90;;;;;;5048893;28;20248;-77
2022/08/20 04:56:48;;;;;;;14.13;12.20;;;17.90;99.90;;;;;;5051422;28;20243;-77
2022/08/20 04:59:15;;;;;;;17.57;13.03;;;17.90;99.90;;;;;;5043087;28;20254;-76
2022/08/20 05:01:42;;;;;;;15.23;11.77;;;17.90;99.90;;;;;;5052728;28;20244;-77
2022/08/20 05:04:10;;;;;;;17.90;12.77;;;18.00;99.90;;;;;;5048300;28;20250;-77
2022/08/20 05:06:40;;;;;;;18.07;12.33;;;18.00;99.90;;;;;;5049879;28;20751;-78
2022/08/20 05:09:06;;;;;;;15.20;13.17;;;18.00;99.90;;;;;;5044778;28;20225;-78
2022/08/20 05:11:34;;;;;;;16.83;11.87;;;18.10;99.90;;;;;;5062528;28;20679;-78
2022/08/20 05:14:03;;;;;;;14.93;11.83;;;18.10;99.90;;;;;;5046074;28;20250;-77
2022/08/20 05:16:36;;;;;;;14.27;11.20;;;18.20;99.90;;;;;;5050042;28;20632;-78
2022/08/20 05:19:03;;;;;;;14.23;11.77;;;18.20;99.90;;;;;;5050970;28;20230;-77
2022/08/20 05:21:31;;;;;;;15.70;12.40;;;18.20;99.90;;;;;;5053166;28;20594;-78
2022/08/20 05:23:58;;;;;;;16.83;12.57;;;18.30;99.90;;;;;;5052908;28;20218;-77
2022/08/20 05:26:25;;;;;;;16.37;11.33;;;18.30;99.90;;;;;;5053568;28;20247;-78
2022/08/20 05:28:51;;;;;;;14.53;11.53;;;18.40;99.90;;;;;;5045639;28;20775;-78
2022/08/20 05:31:19;;;;;;;14.37;11.93;;;18.40;99.90;;;;;;5048885;28;20219;-78
2022/08/20 05:33:49;;;;;;;13.27;11.67;;;18.50;99.90;;;;;;5044039;28;20818;-78
2022/08/20 05:36:16;;;;;;;13.67;11.50;;;18.50;99.90;;;;;;5054668;28;20254;-78
2022/08/20 05:38:44;;;;;;;14.40;11.30;;;18.50;99.90;;;;;;5048012;28;20245;-77
2022/08/20 05:41:13;;;;;;;13.73;11.30;;;18.50;99.90;;;;;;5052911;28;20235;-78
2022/08/20 05:43:40;;;;;;;13.77;10.60;;;18.60;99.90;;;;;;5046957;28;20232;-76
2022/08/20 05:46:07;;;;;;;13.27;10.70;;;18.60;99.90;;;;;;5048972;28;20242;-77
2022/08/20 05:48:34;;;;;;;14.13;10.97;;;18.60;99.90;;;;;;5046563;28;20318;-78
2022/08/20 05:51:01;;;;;;;12.67;10.37;;;18.70;99.90;;;;;;5049712;28;20257;-77
2022/08/20 05:53:28;;;;;;;12.60;9.97;;;18.70;99.90;;;;;;5051524;28;20218;-78
2022/08/20 05:55:56;;;;;;;12.83;10.53;;;18.80;99.90;;;;;;5049022;28;20215;-78
2022/08/20 05:58:25;;;;;;;12.70;10.37;;;18.80;99.90;;;;;;5049812;28;20226;-77
2022/08/20 06:00:53;;;;;;;14.07;11.37;;;18.90;99.90;;;;;;5053021;28;20285;-78
2022/08/20 06:06:06;;;;;;;11.93;9.43;;;19.00;99.90;;;;;;5048471;28;20300;-77
2022/08/20 06:08:33;;;;;;;13.67;9.57;;;19.10;99.90;;;;;;5057408;28;20226;-77
2022/08/20 06:11:01;;;;;;;10.97;9.87;;;19.10;99.90;;;;;;5041534;28;20378;-77
2022/08/20 06:13:28;;;;;;;12.57;10.47;;;19.20;99.90;;;;;;5050113;28;20228;-80
2022/08/20 06:15:55;;;;;;;12.17;10.03;;;19.20;99.90;;;;;;5056019;28;20223;-79
2022/08/20 06:18:22;;;;;;;12.30;9.43;;;19.30;99.90;;;;;;5052850;28;20250;-79
2022/08/20 06:20:49;;;;;;;11.73;10.20;;;19.40;99.90;;;;;;5059340;28;20226;-79
2022/08/20 06:23:16;;;;;;;11.97;9.73;;;19.50;99.90;;;;;;5053203;28;20750;-79
2022/08/20 06:25:43;;;;;;;12.13;9.83;;;19.60;99.90;;;;;;5062243;28;20872;-78
2022/08/20 06:28:13;;;;;;;11.93;9.60;;;19.70;99.90;;;;;;5054905;28;20272;-78
2022/08/20 06:30:40;;;;;;;12.40;11.03;;;19.80;99.90;;;;;;5059437;28;20711;-78
2022/08/20 06:33:07;;;;;;;12.53;11.20;;;20.00;99.90;;;;;;5048392;28;20231;-78
2022/08/20 06:35:36;;;;;;;13.60;10.77;;;20.10;99.90;;;;;;5055383;28;20632;-79
2022/08/20 06:38:04;;;;;;;10.55;9.23;;;20.20;99.90;;;;;;5052169;28;20219;-79
2022/08/20 06:40:33;;;;;;;12.87;11.40;;;20.30;99.90;;;;;;5056623;28;20242;-78
2022/08/20 06:43:00;;;;;;;10.55;9.10;;;20.40;99.90;;;;;;5055238;28;20243;-79
2022/08/20 06:45:30;;;;;;;12.00;9.60;;;20.40;99.90;;;;;;5058261;28;20230;-79
2022/08/20 06:48:01;;;;;;;9.00;7.97;;;20.40;99.90;;;;;;5059266;28;20283;-80
2022/08/20 06:50:38;;;;;;;12.48;9.55;;;20.40;99.90;;;;;;5065463;28;20319;-80
2022/08/20 06:53:05;;;;;;;11.80;9.40;;;20.40;99.90;;;;;;5056214;28;20227;-80
2022/08/20 06:55:32;;;;;;;10.70;9.23;;;20.50;99.90;;;;;;5059921;28;20232;-80
2022/08/20 06:58:00;;;;;;;11.30;9.63;;;20.50;99.90;;;;;;5058575;28;20252;-80
2022/08/20 07:00:30;;;;;;;14.00;9.77;;;20.60;99.90;;;;;;5055817;28;20759;-80
2022/08/20 07:02:59;;;;;;;11.02;9.05;;;20.60;99.90;;;;;;5055992;28;20219;-80
2022/08/20 07:05:26;;;;;;;10.70;9.40;;;20.70;99.90;;;;;;5054736;28;20231;-80
2022/08/20 07:07:53;;;;;;;12.00;8.60;;;20.70;99.90;;;;;;5053809;28;20219;-79
2022/08/20 07:10:20;;;;;;;13.10;8.52;;;20.80;99.90;;;;;;5063664;28;20216;-81
2022/08/20 07:12:49;;;;;;;10.32;8.68;;;20.90;99.90;;;;;;5058351;28;20593;-81
2022/08/20 07:15:18;;;;;;;10.98;8.88;;;21.00;99.90;;;;;;5061070;28;20312;-78
2022/08/20 07:17:53;;;;;;;10.23;8.25;;;21.20;99.90;;;;;;5062698;28;20217;-79
2022/08/20 07:20:21;;;;;;;10.18;8.27;;;21.40;99.90;;;;;;5062815;28;20212;-79
2022/08/20 07:22:48;;;;;;;9.40;8.10;;;21.50;99.90;;;;;;5059370;28;20237;-79
2022/08/20 07:25:18;;;;;;;11.38;7.20;;;21.70;99.90;;;;;;5059330;28;20234;-79
2022/08/20 07:27:45;;;;;;;9.60;6.78;;;21.70;99.90;;;;;;5059158;28;20219;-79
2022/08/20 07:33:00;;;;;;;7.53;6.43;;;21.90;99.90;;;;;;5049892;28;20348;-78
2022/08/20 07:35:27;;;;;;;8.65;6.10;;;21.90;99.90;;;;;;5059298;28;20306;-78
2022/08/20 07:37:54;;;;;;;8.65;6.55;;;21.90;99.90;;;;;;5053007;28;20219;-78
2022/08/20 07:40:23;;;;;;;7.07;6.38;;;21.90;99.90;;;;;;5056040;28;20227;-78
2022/08/20 07:42:50;;;;;;;6.75;5.57;;;21.90;99.90;;;;;;5052990;28;20232;-78
2022/08/20 07:45:18;;;;;;;5.90;5.15;;;21.90;99.90;;;;;;5050754;28;20219;-78
2022/08/20 07:47:45;;;;;;;6.00;5.40;;;21.90;99.90;;;;;;5052927;28;20651;-79
2022/08/20 07:50:16;;;;;;;5.68;4.93;;;22.00;99.90;;;;;;5053660;28;20223;-79
2022/08/20 07:52:44;;;;;;;5.55;4.47;;;22.10;99.90;;;;;;5051987;28;20228;-78
2022/08/20 07:55:14;;;;;;;5.57;3.90;;;22.30;99.90;;;;;;5054650;28;20615;-78
2022/08/20 07:57:41;;;;;;;4.97;4.20;;;22.40;99.90;;;;;;5055220;28;20232;-78
2022/08/20 08:00:11;;;;;;;6.20;4.10;;;22.60;99.90;;;;;;5056108;28;20334;-77
2022/08/20 08:02:38;;;;;;;4.55;3.28;;;22.60;99.90;;;;;;5056213;28;21060;-78
2022/08/20 08:05:06;;;;;;;6.60;3.72;;;22.70;99.90;;;;;;5055625;28;20227;-76
2022/08/20 08:07:35;;;;;;;7.50;3.47;;;22.80;99.90;;;;;;5056395;28;20223;-76
2022/08/20 08:10:03;;;;;;;5.00;3.50;;;23.00;99.90;;;;;;5057972;28;20222;-75
2022/08/20 08:12:35;;;;;;;3.58;2.72;;;23.40;99.90;;;;;;5046294;28;20235;-76
2022/08/20 08:15:04;;;;;;;3.83;2.70;;;23.80;99.90;;;;;;5051127;28;20307;-76
2022/08/20 08:17:31;;;;;;;6.45;3.90;;;24.10;99.90;;;;;;5050673;28;20227;-77
2022/08/20 08:19:58;;;;;;;2.88;2.28;;;24.40;99.90;;;;;;5046080;28;20619;-76
2022/08/20 08:22:25;;;;;;;2.88;2.38;;;24.70;99.90;;;;;;5046777;28;20535;-77
2022/08/20 08:24:53;;;;;;;3.85;2.47;;;25.00;99.90;;;;;;5046821;28;20281;-76
2022/08/20 08:27:21;;;;;;;4.72;2.80;;;25.40;99.90;;;;;;5050110;28;20216;-75
2022/08/20 08:29:48;;;;;;;4.55;2.70;;;25.70;99.90;;;;;;5051759;28;20219;-77
2022/08/20 08:32:16;;;;;;;3.75;2.25;;;26.10;99.90;;;;;;5048942;28;20255;-76
2022/08/20 08:34:46;;;;;;;2.83;2.10;;;26.50;99.60;;;;;;5048663;28;20235;-77
2022/08/20 08:37:13;;;;;;;3.38;2.35;;;26.90;99.10;;;;;;5051232;28;20239;-77
2022/08/20 08:39:40;;;;;;;4.68;2.38;;;27.20;98.50;;;;;;5049800;28;20300;-76
2022/08/20 08:42:25;;;;;;;3.58;2.20;;;27.50;98.10;;;;;;5047206;28;20231;-76
2022/08/20 08:44:53;;;;;;;2.45;1.70;;;27.70;96.70;;;;;;5054200;28;20227;-76
2022/08/20 08:47:28;;;;;;;3.53;2.25;;;28.00;96.50;;;;;;5046399;28;20224;-75
2022/08/20 08:49:56;;;;;;;2.33;1.75;;;28.10;95.70;;;;;;5055043;28;20295;-77
2022/08/20 08:52:28;;;;;;;4.38;1.70;;;28.40;95.40;;;;;;5051827;28;20238;-77
2022/08/20 08:54:59;;;;;;;3.50;1.90;;;28.60;94.50;;;;;;5047724;28;20232;-77
2022/08/20 08:57:28;;;;;;;2.00;1.48;;;28.90;94.10;;;;;;5050340;28;20816;-77
2022/08/20 08:59:58;;;;;;;5.78;1.60;;;29.20;94.20;;;;;;5048205;28;20230;-77
2022/08/20 09:02:28;;;;;;;4.70;1.70;;;29.50;93.90;;;;;;5046392;28;20741;-77
2022/08/20 09:04:56;;;;;;;3.95;1.83;;;29.90;92.80;;;;;;5046823;28;20327;-77
2022/08/20 09:07:27;;;;;;;2.75;1.50;;;30.20;91.90;;;;;;5044809;28;20230;-76
2022/08/20 09:09:57;;;;;;;3.35;1.80;;;30.40;90.80;;;;;;5050718;28;20240;-76
2022/08/20 09:12:26;;;;;;;3.65;1.80;;;30.60;91.00;;;;;;5052127;28;20259;-77
2022/08/20 09:14:54;;;;;;;2.35;1.80;;;30.70;90.80;;;;;;5050810;28;20247;-76
2022/08/20 09:17:24;;;;;;;5.35;2.03;;;30.90;90.10;;;;;;5050730;28;21015;-76
2022/08/20 09:19:51;;;;;;;2.60;1.75;;;31.00;88.20;;;;;;5047657;28;20334;-77
2022/08/20 09:22:20;;;;;;;3.83;2.22;;;31.10;87.20;;;;;;5050653;28;20220;-77
2022/08/20 09:24:47;;;;;;;4.82;1.95;;;30.90;86.80;;;;;;5052196;28;20223;-77
2022/08/20 09:27:14;;;;;;;4.32;2.00;;;30.80;86.70;;;;;;5042868;28;20923;-77
2022/08/20 09:29:40;;;;;;;3.80;2.10;;;30.60;86.90;;;;;;5046987;28;20274;-77
2022/08/20 09:32:11;;;;;;;3.40;1.60;;;30.30;86.70;;;;;;5048836;28;20900;-76
2022/08/20 09:34:40;;;;;;;2.65;1.42;;;30.10;82.00;;;;;;5053794;28;20231;-77
2022/08/20 09:37:07;;;;;;;4.00;1.50;;;29.80;82.50;;;;;;5050657;28;20231;-77
2022/08/20 09:39:34;;;;;;;2.28;1.35;;;29.60;83.00;;;;;;5050056;28;20218;-79
2022/08/20 09:42:08;;;;;;;4.18;1.60;;;29.40;83.40;;;;;;5047471;28;20225;-79
2022/08/20 09:44:35;;;;;;;3.08;1.45;;;29.30;83.30;;;;;;5046509;28;20224;-78
2022/08/20 09:47:02;;;;;;;2.67;1.40;;;29.20;83.90;;;;;;5053632;28;20224;-79
2022/08/20 09:49:30;;;;;;;2.30;1.40;;;29.10;84.80;;;;;;5051214;28;20228;-79
2022/08/20 09:52:02;;;;;;;2.65;1.40;;;29.00;84.30;;;;;;5053480;28;20254;-80
2022/08/20 09:54:30;;;;;;;4.72;1.40;;;29.00;85.00;;;;;;5047358;28;20299;-79
2022/08/20 09:56:57;;;;;;;4.53;2.00;;;29.10;85.00;;;;;;5048654;28;20300;-80
2022/08/20 09:59:25;;;;;;;3.85;1.77;;;29.30;84.90;;;;;;5052347;28;20282;-79
2022/08/20 10:01:51;;;;;;;3.47;1.60;;;29.50;85.50;;;;;;5049064;28;20716;-79
2022/08/20 10:04:18;;;;;;;3.78;1.88;;;29.80;84.80;;;;;;5048352;28;20576;-80
2022/08/20 10:06:47;;;;;;;3.88;1.48;;;30.20;83.90;;;;;;5065766;28;20238;-79
2022/08/20 10:09:14;;;;;;;4.65;1.80;;;30.40;81.10;;;;;;5056623;28;20224;-79
2022/08/20 10:11:40;;;;;;;5.47;1.88;;;30.70;79.60;;;;;;5049566;28;20239;-81
2022/08/20 10:14:07;;;;;;;4.15;1.70;;;30.70;78.90;;;;;;5043629;28;20223;-79
2022/08/20 10:16:35;;;;;;;4.78;1.92;;;30.70;78.60;;;;;;5051479;28;20671;-80
2022/08/20 10:19:04;;;;;;;3.00;1.48;;;30.70;79.10;;;;;;5054002;28;20219;-79
2022/08/20 10:21:33;;;;;;;5.55;2.10;;;30.70;78.70;;;;;;5058285;28;20663;-79
2022/08/20 10:24:01;;;;;;;4.55;1.88;;;30.70;78.20;;;;;;5056301;28;20215;-80
2022/08/20 10:26:28;;;;;;;5.47;1.88;;;30.70;77.60;;;;;;5054006;28;20235;-80
2022/08/20 10:28:57;;;;;;;4.80;1.60;;;30.70;76.90;;;;;;5068321;28;20227;-80
2022/08/20 10:31:24;;;;;;;5.63;2.17;;;30.60;76.70;;;;;;5053768;28;20290;-80
2022/08/20 10:33:51;;;;;;;6.30;1.90;;;30.50;75.90;;;;;;5056953;28;20238;-80
2022/08/20 10:36:20;;;;;;;3.63;1.77;;;30.30;76.00;;;;;;5059548;28;20319;-80
2022/08/20 10:38:48;;;;;;;4.55;1.70;;;30.20;75.80;;;;;;5051763;28;20219;-79
2022/08/20 10:41:16;;;;;;;5.32;2.10;;;30.10;75.10;;;;;;5052358;28;20628;-80
2022/08/20 10:43:43;;;;;;;3.90;1.65;;;30.00;75.00;;;;;;5056511;28;20228;-80
2022/08/20 10:46:13;;;;;;;4.15;1.67;;;29.90;74.40;;;;;;5054039;28;20319;-80
2022/08/20 10:48:40;;;;;;;3.72;1.88;;;29.90;73.90;;;;;;5059040;28;20238;-80
2022/08/20 10:51:06;;;;;;;4.15;1.60;;;29.70;74.00;;;;;;5054177;28;20337;-79
2022/08/20 10:53:34;;;;;;;6.57;2.20;;;29.70;74.20;;;;;;5061613;28;20231;-83
2022/08/20 10:56:00;;;;;;;3.03;1.48;;;29.50;74.50;;;;;;5055733;28;20324;-80
2022/08/20 10:58:28;;;;;;;4.25;1.60;;;29.50;75.00;;;;;;5049193;28;20223;-79
2022/08/20 11:00:55;;;;;;;5.70;1.77;;;29.40;74.30;;;;;;5064673;28;20310;-79
2022/08/20 11:03:22;;;;;;;5.63;1.77;;;29.30;74.30;;;;;;5049754;28;20231;-82
2022/08/20 11:05:49;;;;;;;5.18;1.65;;;29.30;74.30;;;;;;5059295;28;20227;-80
2022/08/20 11:08:16;;;;;;;3.55;1.88;;;29.20;73.50;;;;;;5060703;28;20516;-79
2022/08/20 11:10:43;;;;;;;4.00;1.77;;;29.10;74.00;;;;;;5057879;28;20219;-81
2022/08/20 11:13:11;;;;;;;6.22;1.92;;;29.00;73.50;;;;;;5060124;28;20227;-81
2022/08/20 11:15:42;;;;;;;4.40;1.60;;;29.00;74.40;;;;;;5062367;28;20233;-81
2022/08/20 11:18:09;;;;;;;6.57;2.08;;;29.10;74.60;;;;;;5058114;28;20296;-78
2022/08/20 11:20:36;;;;;;;4.65;1.80;;;29.10;74.50;;;;;;5055406;28;20235;-78
2022/08/20 11:23:03;;;;;;;4.60;1.60;;;29.10;74.80;;;;;;5058619;28;20235;-78
2022/08/20 11:25:30;;;;;;;6.60;2.08;;;29.10;74.80;;;;;;5055543;28;20226;-78
2022/08/20 11:27:58;;;;;;;4.40;2.03;;;29.10;74.90;;;;;;5062096;28;20227;-78
2022/08/20 11:30:27;;;;;;;5.38;1.90;;;28.90;75.10;;;;;;5055369;28;20235;-77
2022/08/20 11:32:56;;;;;;;5.28;2.17;;;28.80;75.50;;;;;;5053315;28;20342;-78
2022/08/20 11:35:23;;;;;;;5.72;2.35;;;28.70;75.60;;;;;;5054500;28;20237;-78
2022/08/20 11:37:50;;;;;;;6.10;1.88;;;28.60;75.40;;;;;;5053055;28;20243;-78
2022/08/20 11:40:17;;;;;;;4.03;1.98;;;28.40;75.80;;;;;;5056968;28;20227;-78
2022/08/20 11:42:43;;;;;;;5.50;1.95;;;28.40;75.70;;;;;;5058397;28;20223;-78
2022/08/20 11:45:11;;;;;;;9.45;2.28;;;28.30;75.60;;;;;;5057365;28;20227;-78
2022/08/20 11:47:38;;;;;;;5.50;1.70;;;28.30;75.80;;;;;;5055979;28;20577;-77
2022/08/20 11:50:11;;;;;;;6.05;1.95;;;28.30;75.70;;;;;;5059346;28;20227;-78
2022/08/20 11:52:38;;;;;;;4.28;1.75;;;28.30;74.80;;;;;;5054977;28;20216;-78
2022/08/20 11:55:09;;;;;;;4.82;1.50;;;28.30;74.80;;;;;;5052388;28;20227;-78
2022/08/20 11:57:38;;;;;;;5.32;1.60;;;28.30;75.40;;;;;;5057284;28;20227;-77
2022/08/20 12:00:09;;;;;;;5.03;1.63;;;28.30;75.50;;;;;;5055314;28;20219;-78
2022/08/20 12:02:36;;;;;;;4.65;1.67;;;28.30;74.80;;;;;;5060232;28;20979;-78
2022/08/20 12:05:03;;;;;;;4.25;1.48;;;28.30;74.30;;;;;;5058654;28;20896;-77
2022/08/20 12:07:31;;;;;;;4.90;1.63;;;28.40;74.60;;;;;;5053742;28;20234;-77
2022/08/20 12:09:58;;;;;;;6.88;1.60;;;28.40;74.20;;;;;;5056277;28;20314;-78
2022/08/20 12:12:25;;;;;;;5.57;1.55;;;28.50;73.80;;;;;;5056310;28;20219;-77
2022/08/20 12:14:52;;;;;;;4.28;1.70;;;28.50;73.30;;;;;;5060622;28;20728;-78
2022/08/20 12:17:22;;;;;;;5.60;1.65;;;28.60;72.30;;;;;;5055602;28;20764;-78
2022/08/20 12:19:50;;;;;;;6.38;1.58;;;28.60;72.40;;;;;;5058026;28;20222;-78
2022/08/20 12:22:18;;;;;;;4.55;1.58;;;28.70;72.20;;;;;;5050871;28;20323;-77
2022/08/20 12:24:46;;;;;;;8.65;2.00;;;28.80;72.00;;;;;;5054967;28;20710;-78
2022/08/20 12:27:16;;;;;;;3.50;1.63;;;28.90;70.80;;;;;;5055439;28;20235;-78
2022/08/20 12:29:44;;;;;;;4.95;1.70;;;29.00;70.60;;;;;;5056576;28;20224;-78
2022/08/20 12:32:13;;;;;;;6.93;2.05;;;29.00;70.70;;;;;;5051290;28;20220;-77
2022/08/20 12:34:41;;;;;;;5.72;2.58;;;29.10;70.10;;;;;;5057576;28;20308;-77
2022/08/20 12:37:10;;;;;;;4.85;1.48;;;29.00;70.00;;;;;;5057846;28;20229;-78
2022/08/20 12:39:38;;;;;;;6.68;1.75;;;29.10;70.00;;;;;;5055010;28;20216;-78
2022/08/20 12:42:07;;;;;;;7.00;1.80;;;29.10;68.50;;;;;;5054957;28;20254;-77
2022/08/20 12:44:34;;;;;;;4.47;1.52;;;29.20;67.30;;;;;;5049796;28;20216;-78
2022/08/20 12:47:11;;;;;;;4.25;1.48;;;29.20;66.70;;;;;;5055805;28;20303;-78
2022/08/20 12:49:40;;;;;;;2.70;1.27;;;29.10;66.10;;;;;;5055500;28;20237;-78